Time;durP1;ratioP1;P1;durP2;ratioP2;P2;SDS_P1;SDS_P2;PMS_P1;PMS_P2;Temp;Humidity;BMP_temperature;BMP_pressure;BME280_temperature;BME280_humidity;BME280_pressure;Samples;Min_cycle;Max_cycle;Signal;HPM_P1;HPM_P2
2022/01/22 00:00:37;;;;;;;9.20;7.35;;;;;;;-0.70;75.98;99145.51;1732944;80;21125;-64
2022/01/22 00:03:03;;;;;;;13.53;8.43;;;;;;;-0.65;76.09;99136.75;1741511;80;21115;-62
2022/01/22 00:05:30;;;;;;;13.33;8.97;;;;;;;-0.70;76.38;99140.28;1748913;80;20970;-62
2022/01/22 00:07:57;;;;;;;11.63;7.58;;;;;;;-0.71;76.24;99142.57;1747000;80;21187;-60
2022/01/22 00:10:25;;;;;;;7.67;6.33;;;;;;;-0.71;76.33;99143.88;1743263;80;21537;-61
2022/01/22 00:13:08;;;;;;;;;;;;;;;-0.73;76.63;99143.70;1740215;80;20993;-61
2022/01/22 00:15:25;;;;;;;9.37;7.07;;;;;;;-0.77;76.72;99148.39;1737816;80;20184;-62
2022/01/22 00:17:52;;;;;;;11.00;6.63;;;;;;;-0.88;76.97;99139.42;1743921;80;21519;-60
2022/01/22 00:20:21;;;;;;;8.57;6.27;;;;;;;-0.93;77.20;99142.45;1734833;80;21072;-63
2022/01/22 00:22:48;;;;;;;10.13;8.23;;;;;;;-0.90;77.76;99143.48;1738635;80;20980;-60
2022/01/22 00:25:16;;;;;;;7.70;6.87;;;;;;;-0.87;77.76;99147.10;1748223;80;21021;-61
2022/01/22 00:27:45;;;;;;;13.20;8.10;;;;;;;-0.85;77.39;99154.81;1738125;80;21052;-62
2022/01/22 00:30:16;;;;;;;7.60;6.00;;;;;;;-0.84;77.45;99153.36;1751927;80;21010;-61
2022/01/22 00:32:42;;;;;;;7.10;5.17;;;;;;;-0.81;77.59;99149.63;1736334;80;21002;-60
2022/01/22 00:35:10;;;;;;;7.12;5.12;;;;;;;-0.83;77.80;99148.48;1737768;80;20986;-60
2022/01/22 00:37:42;;;;;;;14.63;11.83;;;;;;;-0.83;77.56;99150.25;1740040;80;21178;-61
2022/01/22 00:40:11;;;;;;;11.87;8.80;;;;;;;-0.88;77.67;99149.89;1750279;80;21489;-61
2022/01/22 00:42:38;;;;;;;7.93;7.03;;;;;;;-0.90;77.99;99144.79;1729682;80;21006;-61
2022/01/22 00:45:07;;;;;;;7.57;5.40;;;;;;;-0.90;78.08;99145.28;1747846;80;20978;-61
2022/01/22 00:47:34;;;;;;;5.87;4.93;;;;;;;-0.92;77.99;99145.88;1744947;80;21024;-60
2022/01/22 00:50:00;;;;;;;7.42;5.70;;;;;;;-0.93;78.14;99141.14;1738498;80;21478;-60
2022/01/22 00:52:27;;;;;;;9.43;7.70;;;;;;;-0.94;78.06;99139.52;1752260;80;21505;-61
2022/01/22 00:54:53;;;;;;;7.42;6.67;;;;;;;-0.98;77.88;99142.05;1755122;80;20978;-61
2022/01/22 00:57:18;;;;;;;9.55;5.83;;;;;;;-0.98;78.18;99132.89;1741248;80;21013;-61
2022/01/22 00:59:44;;;;;;;5.33;4.17;;;;;;;-0.98;78.27;99130.28;1745646;80;21053;-61
2022/01/22 01:02:12;;;;;;;8.90;3.72;;;;;;;-0.97;78.18;99133.25;1743645;80;21001;-61
2022/01/22 01:04:38;;;;;;;4.23;3.83;;;;;;;-0.94;78.14;99142.59;1746349;80;21017;-61
2022/01/22 01:07:06;;;;;;;7.37;4.60;;;;;;;-0.88;78.24;99144.66;1756074;80;20990;-60
2022/01/22 01:09:36;;;;;;;8.80;6.20;;;;;;;-0.86;78.06;99144.84;1740481;80;21130;-60
2022/01/22 01:12:06;;;;;;;7.87;6.13;;;;;;;-0.89;78.44;99143.81;1745703;80;21042;-60
2022/01/22 01:14:39;;;;;;;6.00;4.60;;;;;;;-0.90;78.25;99137.44;1727068;80;21036;-61
2022/01/22 01:35:54;;;;;;;6.60;4.33;;;;;;;-0.89;79.54;99151.66;1743086;80;20994;-61
2022/01/22 01:38:22;;;;;;;3.98;3.55;;;;;;;-0.86;79.29;99150.56;1735205;80;21916;-62
2022/01/22 01:40:59;;;;;;;5.03;4.63;;;;;;;-0.89;79.04;99141.19;1750879;80;21513;-61
2022/01/22 01:43:26;;;;;;;5.20;4.37;;;;;;;-0.91;78.94;99150.16;1731942;80;21057;-59
2022/01/22 01:45:50;;;;;;;5.17;3.57;;;;;;;-0.95;78.85;99143.08;1739994;80;21010;-61
2022/01/22 01:48:22;;;;;;;6.03;4.20;;;;;;;-0.92;78.96;99154.58;1743271;80;21081;-59
2022/01/22 01:50:45;;;;;;;5.47;3.37;;;;;;;-0.84;79.11;99151.24;1744658;80;21018;-60
2022/01/22 01:58:18;;;;;;;6.10;3.25;;;;;;;-0.73;78.08;99156.29;1739529;80;21081;-58
2022/01/22 02:00:46;;;;;;;5.30;4.03;;;;;;;-0.75;77.56;99150.84;1748095;80;21482;-59
2022/01/22 02:03:15;;;;;;;3.43;2.90;;;;;;;-0.80;77.63;99156.52;1732307;80;21041;-59
2022/01/22 02:05:43;;;;;;;3.33;2.80;;;;;;;-0.80;77.72;99160.45;1747322;80;20990;-58
2022/01/22 02:08:13;;;;;;;4.87;2.70;;;;;;;-0.86;77.54;99157.10;1735814;80;21057;-58
2022/01/22 02:10:54;;;;;;;4.60;2.50;;;;;;;-0.92;77.67;99161.12;1747254;80;21614;-61
2022/01/22 02:24:07;;;;;;;3.90;2.43;;;;;;;-1.00;77.64;99161.84;1739917;80;21049;-59
2022/01/22 02:26:34;;;;;;;3.37;2.53;;;;;;;-1.05;77.96;99164.05;1748869;80;21089;-58
2022/01/22 02:29:01;;;;;;;2.93;1.90;;;;;;;-1.05;77.97;99166.66;1756157;80;21112;-59
2022/01/22 02:31:39;;;;;;;3.40;2.60;;;;;;;-1.05;78.07;99164.05;1740874;80;21604;-58
2022/01/22 02:34:19;;;;;;;5.63;2.67;;;;;;;-1.02;78.03;99166.39;1745143;80;21611;-60
2022/01/22 02:36:57;;;;;;;3.60;2.60;;;;;;;-1.03;77.87;99169.95;1735534;80;21652;-61
2022/01/22 02:39:17;;;;;;;2.27;1.90;;;;;;;-0.99;78.06;99166.08;1736724;80;21534;-58
2022/01/22 02:41:47;;;;;;;2.80;2.00;;;;;;;-0.92;77.99;99173.35;1735893;80;21010;-57
2022/01/22 02:44:32;;;;;;;3.53;1.63;;;;;;;-0.88;77.65;99178.17;1744739;80;20977;-59
2022/01/22 02:46:48;;;;;;;2.53;2.03;;;;;;;-0.90;77.07;99185.83;1738869;80;20994;-59
2022/01/22 02:49:13;;;;;;;4.00;3.00;;;;;;;-0.95;77.06;99190.66;1736528;80;22046;-59
2022/01/22 02:51:41;;;;;;;4.70;2.27;;;;;;;-0.98;77.23;99189.13;1747952;80;20997;-58
2022/01/22 02:54:08;;;;;;;3.27;2.13;;;;;;;-1.00;77.15;99191.07;1746800;80;21006;-59
2022/01/22 02:56:34;;;;;;;3.50;1.87;;;;;;;-0.97;77.25;99186.06;1752770;80;21022;-59
2022/01/22 02:59:01;;;;;;;3.10;2.10;;;;;;;-0.89;77.24;99186.16;1742166;80;21009;-59
2022/01/22 03:01:28;;;;;;;2.58;2.25;;;;;;;-0.85;76.60;99184.90;1755473;80;21068;-59
2022/01/22 03:03:54;;;;;;;4.35;2.17;;;;;;;-0.88;76.51;99179.97;1746802;80;21506;-59
2022/01/22 03:06:20;;;;;;;2.58;2.35;;;;;;;-0.89;76.64;99179.62;1735528;80;21926;-60
2022/01/22 03:08:47;;;;;;;4.08;2.15;;;;;;;-0.86;76.47;99194.55;1740883;80;21632;-59
2022/01/22 03:11:25;;;;;;;2.67;1.97;;;;;;;-0.86;76.24;99186.70;1737908;80;21470;-59
2022/01/22 03:17:11;;;;;;;4.97;2.37;;;;;;;-0.85;76.11;99187.05;1746885;80;20974;-59
2022/01/22 03:29:32;;;;;;;5.73;2.37;;;;;;;-0.74;75.62;99188.64;1737904;80;21010;-59
2022/01/22 03:31:49;;;;;;;3.03;1.87;;;;;;;-0.74;75.29;99192.57;1731843;80;21037;-59
2022/01/22 03:34:15;;;;;;;3.73;2.60;;;;;;;-0.72;74.72;99184.09;1737217;80;20997;-59
2022/01/22 03:36:42;;;;;;;1.70;1.12;;;;;;;-0.75;74.78;99181.78;1739453;80;21468;-59
2022/01/22 03:39:10;;;;;;;5.20;2.17;;;;;;;-0.77;74.82;99183.72;1730324;80;21006;-58
2022/01/22 03:41:37;;;;;;;5.03;2.07;;;;;;;-0.82;74.70;99182.01;1733747;80;21013;-59
2022/01/22 03:45:37;;;;;;;4.27;2.37;;;;;;;-0.84;74.81;99183.95;1750614;78;22177;-59
2022/01/22 03:48:04;;;;;;;;;;;;;;;-0.94;74.73;99202.30;1696802;83;21430;-59
2022/01/22 03:50:31;;;;;;;4.30;1.90;;;;;;;-0.93;74.95;99197.88;1712972;83;20450;-58
2022/01/22 03:52:57;;;;;;;6.20;1.92;;;;;;;-0.95;74.91;99192.78;1715920;83;20994;-59
2022/01/22 03:55:39;;;;;;;3.58;1.90;;;;;;;-0.92;74.88;99198.20;1718208;80;21028;-60
2022/01/22 03:58:06;;;;;;;2.00;1.20;;;;;;;-0.84;74.77;99200.45;1712304;83;21027;-59
2022/01/22 04:00:34;;;;;;;3.00;2.20;;;;;;;-0.77;74.39;99207.27;1706632;82;21026;-59
2022/01/22 04:05:29;;;;;;;2.67;2.47;;;;;;;-0.75;73.92;99217.10;1690318;83;20156;-60
2022/01/22 04:08:16;;;;;;;2.87;2.63;;;;;;;-0.77;74.20;99219.04;1694505;83;21036;-60
2022/01/22 04:10:41;;;;;;;3.87;2.40;;;;;;;-0.76;74.04;99214.63;1690559;83;21107;-61
2022/01/22 04:13:12;;;;;;;3.70;2.03;;;;;;;-0.73;74.06;99209.94;1699508;82;21543;-60
2022/01/22 04:15:40;;;;;;;4.10;2.13;;;;;;;-0.69;73.81;99219.14;1699480;83;21032;-61
2022/01/22 04:26:38;;;;;;;8.13;3.90;;;;;;;-0.76;73.39;99234.25;1671396;84;21029;-60
2022/01/22 04:28:53;;;;;;;10.17;6.47;;;;;;;-0.74;73.22;99237.05;1679908;84;21045;-60
2022/01/22 04:31:19;;;;;;;10.15;6.92;;;;;;;-0.73;72.94;99229.56;1682225;84;21020;-60
2022/01/22 04:33:46;;;;;;;;;;;;;;;-0.71;73.04;99226.31;1678337;83;21012;-61
2022/01/22 04:36:13;;;;;;;5.90;3.77;;;;;;;-0.71;72.85;99225.00;1695925;83;20448;-59
2022/01/22 04:38:41;;;;;;;8.27;4.33;;;;;;;-0.78;72.47;99227.84;1690858;83;21090;-60
2022/01/22 04:41:09;;;;;;;5.90;3.40;;;;;;;-0.85;72.83;99233.30;1694716;83;21115;-59
2022/01/22 04:43:38;;;;;;;5.70;3.60;;;;;;;-0.90;72.97;99229.81;1688662;83;21103;-61
2022/01/22 04:48:49;;;;;;;8.75;6.10;;;;;;;-0.94;73.05;99232.38;1688244;83;21053;-60
2022/01/22 04:56:40;;;;;;;5.90;3.83;;;;;;;-0.88;73.35;99236.22;1673978;83;21730;-60
2022/01/22 04:59:07;;;;;;;5.67;4.10;;;;;;;-0.88;73.19;99234.42;1696854;83;21061;-60
2022/01/22 05:01:34;;;;;;;6.83;4.60;;;;;;;-0.89;73.13;99235.86;1664516;83;21049;-61
2022/01/22 05:04:07;;;;;;;5.40;4.03;;;;;;;-0.98;72.98;99237.52;1630230;85;21038;-61
2022/01/22 05:06:38;;;;;;;6.03;2.70;;;;;;;-1.02;73.00;99237.01;1639022;85;21069;-61
2022/01/22 05:09:12;;;;;;;4.30;3.00;;;;;;;-1.03;73.14;99239.27;1626828;86;21568;-62
2022/01/22 05:11:51;;;;;;;1.50;1.40;;;;;;;-1.01;73.10;99244.37;1650144;84;21045;-60
2022/01/22 05:14:17;;;;;;;4.80;2.77;;;;;;;-1.02;72.91;99242.24;1676694;84;21129;-60
2022/01/22 05:16:43;;;;;;;5.45;3.12;;;;;;;-1.06;72.81;99250.00;1643228;84;21041;-60
2022/01/22 05:19:26;;;;;;;3.67;2.02;;;;;;;-1.06;72.76;99247.39;1670669;84;21152;-61
2022/01/22 05:21:39;;;;;;;5.30;2.47;;;;;;;-1.06;72.77;99249.19;1665394;84;21033;-60
2022/01/22 05:24:11;;;;;;;3.23;1.63;;;;;;;-1.06;72.49;99256.54;1656331;81;21569;-60
2022/01/22 05:29:57;;;;;;;5.00;2.55;;;;;;;-1.06;72.31;99251.80;1649045;85;21027;-60
2022/01/22 05:37:12;;;;;;;2.87;1.90;;;;;;;-1.09;71.67;99267.30;1681331;84;21022;-59
2022/01/22 05:39:38;;;;;;;6.00;2.90;;;;;;;-1.13;71.65;99271.16;1693434;83;21010;-60
2022/01/22 05:42:09;;;;;;;1.87;1.67;;;;;;;-1.15;71.99;99267.02;1678620;83;21050;-59
2022/01/22 05:44:36;;;;;;;4.87;2.93;;;;;;;-1.13;71.96;99270.31;1690548;83;21049;-60
2022/01/22 05:47:05;;;;;;;4.77;2.23;;;;;;;-1.13;71.90;99276.85;1728674;82;21125;-60
2022/01/22 05:49:37;;;;;;;3.77;1.90;;;;;;;-1.12;72.03;99275.41;1721594;82;21015;-60
2022/01/22 05:52:10;;;;;;;3.57;1.63;;;;;;;-1.06;71.97;99281.39;1730308;82;21503;-60
2022/01/22 06:00:00;;;;;;;5.07;2.17;;;;;;;-1.08;71.60;99292.97;1643213;85;21039;-60
2022/01/22 06:02:26;;;;;;;2.92;2.02;;;;;;;-1.11;71.52;99297.16;1721155;81;21060;-61
2022/01/22 06:04:54;;;;;;;3.57;2.53;;;;;;;-1.12;71.41;99298.13;1723961;82;21020;-60
2022/01/22 06:07:22;;;;;;;3.00;1.70;;;;;;;-1.10;71.47;99302.73;1722302;82;21074;-61
2022/01/22 06:10:05;;;;;;;1.87;1.60;;;;;;;-1.09;71.24;99299.14;1724450;82;21006;-60
2022/01/22 06:12:41;;;;;;;2.20;1.83;;;;;;;-1.10;71.18;99302.25;1695013;83;21025;-61
2022/01/22 06:14:55;;;;;;;3.43;1.63;;;;;;;-1.07;71.22;99309.02;1678168;84;21030;-61
2022/01/22 06:17:21;;;;;;;4.33;1.67;;;;;;;-1.09;71.03;99308.30;1685243;84;20972;-60
2022/01/22 06:19:49;;;;;;;8.77;3.13;;;;;;;-1.07;70.87;99310.32;1687019;84;22270;-61
2022/01/22 06:22:16;;;;;;;5.87;2.97;;;;;;;-1.15;70.77;99312.78;1675995;84;21010;-61
2022/01/22 06:24:42;;;;;;;5.25;3.27;;;;;;;-1.14;70.86;99323.11;1676605;84;21573;-60
2022/01/22 06:27:10;;;;;;;4.77;2.17;;;;;;;-1.09;70.99;99320.06;1687419;84;21001;-61
2022/01/22 06:29:37;;;;;;;4.63;2.63;;;;;;;-1.03;70.94;99315.13;1685437;84;21070;-60
2022/01/22 06:32:04;;;;;;;3.00;1.87;;;;;;;-1.00;70.43;99320.09;1683912;84;21014;-60
2022/01/22 06:34:33;;;;;;;3.87;1.53;;;;;;;-0.97;70.48;99324.70;1678356;84;21114;-59
2022/01/22 06:36:59;;;;;;;5.42;2.80;;;;;;;-0.92;70.36;99322.00;1683166;84;20962;-61
2022/01/22 06:39:26;;;;;;;6.83;3.30;;;;;;;-0.85;69.96;99324.88;1693386;83;21078;-60
2022/01/22 06:42:04;;;;;;;2.50;2.03;;;;;;;-0.83;69.68;99325.55;1687492;83;21058;-61
2022/01/22 06:44:34;;;;;;;2.37;1.80;;;;;;;-0.85;69.92;99330.95;1691401;82;21064;-62
2022/01/22 06:47:08;;;;;;;4.30;1.60;;;;;;;-0.82;69.74;99332.45;1728366;82;21527;-66
2022/01/22 06:49:54;;;;;;;2.90;1.57;;;;;;;-0.82;69.09;99325.91;1734187;82;21070;-71
2022/01/22 06:52:35;;;;;;;2.90;2.20;;;;;;;-0.85;69.13;99332.26;1659468;82;21043;-67
2022/01/22 06:55:05;;;;;;;3.70;1.27;;;;;;;-0.81;69.35;99325.78;1728468;82;21058;-66
2022/01/22 06:57:32;;;;;;;4.03;1.70;;;;;;;-0.81;68.85;99324.93;1709776;82;20998;-70
2022/01/22 06:59:58;;;;;;;4.53;1.97;;;;;;;-0.81;68.89;99332.32;1728875;82;21122;-69
2022/01/22 07:02:25;;;;;;;1.97;1.47;;;;;;;-0.80;68.91;99340.49;1685033;82;21196;-68
2022/01/22 07:04:51;;;;;;;3.12;2.08;;;;;;;-0.78;69.00;99331.20;1657730;85;21077;-68
2022/01/22 07:07:19;;;;;;;3.90;3.13;;;;;;;-0.79;68.85;99342.16;1673639;84;21078;-71
2022/01/22 07:09:45;;;;;;;6.35;3.00;;;;;;;-0.76;69.12;99348.08;1682969;84;21490;-68
2022/01/22 07:12:12;;;;;;;3.12;2.83;;;;;;;-0.69;69.13;99343.94;1701823;83;21789;-67
2022/01/22 07:14:42;;;;;;;9.80;4.37;;;;;;;-0.66;68.75;99344.48;1715731;82;21614;-67
2022/01/22 07:17:11;;;;;;;8.13;2.83;;;;;;;-0.64;68.73;99343.86;1712514;83;21428;-68
2022/01/22 07:19:53;;;;;;;6.07;3.37;;;;;;;-0.67;68.13;99346.75;1716434;83;21016;-70
2022/01/22 07:22:40;;;;;;;4.27;2.77;;;;;;;-0.66;68.34;99345.80;1717228;82;21015;-67
2022/01/22 07:25:05;;;;;;;6.63;2.77;;;;;;;-0.68;68.22;99345.11;1715104;83;20967;-67
2022/01/22 07:27:31;;;;;;;8.90;2.77;;;;;;;-0.73;68.35;99356.48;1707532;83;21063;-67
2022/01/22 07:29:57;;;;;;;3.27;1.57;;;;;;;-0.74;68.43;99354.81;1710622;83;21089;-66
2022/01/22 07:32:30;;;;;;;3.03;1.77;;;;;;;-0.72;68.13;99358.60;1710267;83;21493;-67
2022/01/22 07:34:54;;;;;;;8.10;2.87;;;;;;;-0.75;68.08;99358.41;1671793;83;21006;-65
2022/01/22 07:37:22;;;;;;;3.07;1.90;;;;;;;-0.72;68.26;99360.73;1674270;84;21101;-67
2022/01/22 07:39:49;;;;;;;5.53;2.73;;;;;;;-0.69;68.50;99363.08;1674948;84;21066;-68
2022/01/22 07:42:34;;;;;;;3.13;2.23;;;;;;;-0.66;68.11;99364.12;1680297;84;21125;-69
2022/01/22 07:45:04;;;;;;;6.70;2.53;;;;;;;-0.65;68.01;99363.13;1673119;84;21050;-70
2022/01/22 07:47:32;;;;;;;8.63;2.43;;;;;;;-0.65;67.83;99364.44;1680187;85;21554;-66
2022/01/22 07:50:00;;;;;;;5.60;2.80;;;;;;;-0.68;67.71;99370.44;1660034;84;21147;-68
2022/01/22 07:52:27;;;;;;;4.47;2.33;;;;;;;-0.69;68.06;99373.55;1667008;84;21006;-69
2022/01/22 07:54:54;;;;;;;4.80;2.80;;;;;;;-0.65;68.05;99375.41;1678982;85;21022;-68
2022/01/22 07:57:20;;;;;;;5.40;1.42;;;;;;;-0.65;67.84;99373.60;1724564;83;21014;-67
2022/01/22 07:59:47;;;;;;;1.97;1.17;;;;;;;-0.61;67.81;99378.89;1724484;82;21558;-68
2022/01/22 08:02:14;;;;;;;3.87;2.00;;;;;;;-0.55;67.57;99380.12;1723037;82;21034;-69
2022/01/22 08:04:48;;;;;;;2.93;1.37;;;;;;;-0.52;67.34;99387.71;1716524;82;21530;-68
2022/01/22 08:07:29;;;;;;;2.57;1.70;;;;;;;-0.54;67.35;99389.64;1719027;82;21065;-67
2022/01/22 08:10:10;;;;;;;7.10;2.70;;;;;;;-0.54;67.30;99396.19;1724715;82;21015;-67
2022/01/22 08:12:48;;;;;;;4.07;3.03;;;;;;;-0.52;67.59;99396.88;1729781;82;21019;-69
2022/01/22 08:15:16;;;;;;;13.27;8.47;;;;;;;-0.48;67.47;99397.42;1725891;83;21047;-68
2022/01/22 08:17:44;;;;;;;9.50;7.17;;;;;;;-0.42;67.17;99395.55;1722759;82;21089;-72
2022/01/22 08:20:14;;;;;;;8.60;5.57;;;;;;;-0.36;67.29;99396.77;1719858;83;21006;-69
2022/01/22 08:22:53;;;;;;;8.90;5.37;;;;;;;-0.29;67.05;99403.10;1725528;82;21468;-67
2022/01/22 08:25:42;;;;;;;5.03;3.70;;;;;;;-0.27;67.08;99401.16;1728619;82;21024;-69
2022/01/22 08:31:19;;;;;;;6.97;4.13;;;;;;;-0.24;66.58;99408.75;1733762;81;21054;-69
2022/01/22 08:35:52;;;;;;;7.17;3.90;;;;;;;-0.22;66.97;99415.48;1718990;82;21033;-71
2022/01/22 08:36:04;;;;;;;6.40;4.23;;;;;;;-0.13;66.93;99420.83;1731770;82;21102;-72
2022/01/22 08:38:31;;;;;;;6.47;4.53;;;;;;;-0.07;66.66;99418.97;1737608;82;21116;-70
2022/01/22 08:40:58;;;;;;;;;;;;;;;-0.05;66.45;99419.66;1738165;82;21099;-72
2022/01/22 08:43:27;;;;;;;6.23;4.47;;;;;;;-0.05;66.24;99423.59;1719480;82;20159;-71
2022/01/22 08:45:54;;;;;;;8.73;4.23;;;;;;;-0.17;66.56;99419.01;1685722;84;21063;-70
2022/01/22 08:48:23;;;;;;;10.47;4.80;;;;;;;-0.04;66.80;99433.08;1691381;83;21509;-69
2022/01/22 08:50:51;;;;;;;5.57;4.10;;;;;;;0.01;66.32;99430.87;1700245;84;21559;-70
2022/01/22 08:53:17;;;;;;;7.78;6.47;;;;;;;0.07;66.37;99438.64;1705318;83;20966;-71
2022/01/22 08:55:43;;;;;;;7.45;5.28;;;;;;;0.14;65.87;99434.48;1699480;83;21530;-70
2022/01/22 08:58:09;;;;;;;14.47;10.18;;;;;;;0.11;65.41;99429.03;1729579;82;21507;-69
2022/01/22 09:00:40;;;;;;;9.43;5.63;;;;;;;0.07;65.46;99433.41;1719311;82;21577;-68
2022/01/22 09:03:15;;;;;;;8.37;5.53;;;;;;;0.05;65.71;99434.84;1730856;81;21487;-70
2022/01/22 09:05:53;;;;;;;5.90;3.70;;;;;;;0.05;65.94;99432.23;1692089;83;21027;-69
2022/01/22 09:08:40;;;;;;;8.30;4.37;;;;;;;0.09;66.40;99430.97;1725523;82;20999;-70
2022/01/22 09:11:08;;;;;;;6.73;3.07;;;;;;;0.13;66.61;99428.43;1718551;81;21014;-70
2022/01/22 09:13:42;;;;;;;6.27;4.17;;;;;;;0.16;66.41;99441.72;1666997;82;20990;-71
2022/01/22 09:16:08;;;;;;;3.77;3.45;;;;;;;0.19;66.50;99433.09;1726916;83;21054;-71
2022/01/22 09:18:36;;;;;;;9.77;3.83;;;;;;;0.20;66.82;99433.91;1728590;83;21062;-71
2022/01/22 09:21:04;;;;;;;3.62;2.85;;;;;;;0.19;67.06;99442.27;1726535;82;21179;-73
2022/01/22 09:23:34;;;;;;;5.70;3.33;;;;;;;0.19;67.21;99433.58;1721006;82;21037;-75
2022/01/22 09:26:04;;;;;;;3.83;2.70;;;;;;;0.14;67.30;99436.61;1720101;82;21581;-74
2022/01/22 09:28:34;;;;;;;3.60;3.10;;;;;;;0.12;67.79;99440.36;1724869;82;21062;-73
2022/01/22 09:31:02;;;;;;;6.37;3.10;;;;;;;0.18;67.77;99442.40;1733720;82;21507;-74
2022/01/22 09:33:29;;;;;;;5.13;4.03;;;;;;;0.27;67.78;99438.10;1726876;82;20993;-76
2022/01/22 09:36:06;;;;;;;8.03;5.07;;;;;;;0.35;67.75;99439.50;1716073;82;21624;-72
2022/01/22 09:38:36;;;;;;;8.63;4.60;;;;;;;0.40;67.57;99442.53;1733362;82;21153;-74
2022/01/22 09:41:05;;;;;;;5.87;4.30;;;;;;;0.47;67.36;99445.37;1713969;82;21047;-72
2022/01/22 09:43:34;;;;;;;6.40;3.53;;;;;;;0.54;67.18;99439.41;1694096;82;21106;-72
2022/01/22 09:46:08;;;;;;;7.27;3.87;;;;;;;0.61;66.69;99442.28;1728470;82;21158;-74
2022/01/22 09:48:56;;;;;;;8.27;5.57;;;;;;;0.61;65.59;99438.84;1721849;82;21097;-73
2022/01/22 09:51:39;;;;;;;7.67;4.77;;;;;;;0.58;65.69;99446.03;1683854;82;21115;-70
2022/01/22 09:54:24;;;;;;;7.27;5.47;;;;;;;0.62;65.54;99449.66;1726604;82;21049;-70
2022/01/22 09:57:01;;;;;;;7.73;4.60;;;;;;;0.67;65.33;99452.67;1725214;82;21010;-70
2022/01/22 09:59:39;;;;;;;6.23;4.70;;;;;;;0.65;63.15;99452.81;1723625;82;21030;-70
2022/01/22 10:02:15;;;;;;;4.67;3.53;;;;;;;0.63;63.75;99456.57;1730213;82;20990;-71
2022/01/22 10:04:45;;;;;;;11.73;4.47;;;;;;;0.63;63.46;99450.83;1728437;82;21038;-70
2022/01/22 10:07:24;;;;;;;7.60;4.80;;;;;;;0.68;63.57;99449.91;1622903;87;21080;-71
2022/01/22 10:10:09;;;;;;;5.33;3.33;;;;;;;0.71;62.88;99451.41;1733001;82;20991;-69
2022/01/22 10:12:53;;;;;;;4.53;2.77;;;;;;;0.66;62.74;99446.61;1732381;82;21286;-70
2022/01/22 10:15:22;;;;;;;3.67;2.73;;;;;;;0.64;62.21;99446.41;1709472;82;21531;-69
2022/01/22 10:17:53;;;;;;;4.00;2.40;;;;;;;0.71;62.97;99446.16;1714408;82;21070;-73
2022/01/22 10:20:27;;;;;;;4.23;2.60;;;;;;;0.83;62.44;99452.02;1717027;82;21036;-76
2022/01/22 10:23:08;;;;;;;5.33;2.10;;;;;;;0.95;62.19;99445.61;1726473;82;21048;-66
2022/01/22 10:25:44;;;;;;;4.27;2.63;;;;;;;1.01;61.11;99449.44;1725971;82;21014;-68
2022/01/22 10:28:19;;;;;;;4.87;3.23;;;;;;;1.02;59.98;99451.92;1727464;82;21507;-67
2022/01/22 10:30:45;;;;;;;5.73;3.03;;;;;;;0.99;60.25;99447.45;1732333;82;21120;-67
2022/01/22 10:33:34;;;;;;;2.90;1.90;;;;;;;1.01;60.43;99452.87;1731401;82;21022;-66
2022/01/22 10:36:22;;;;;;;3.70;2.00;;;;;;;1.06;58.45;99445.89;1722362;82;21157;-67
2022/01/22 10:39:13;;;;;;;6.77;2.60;;;;;;;1.06;58.45;99445.89;1726390;82;21391;-66
2022/01/22 10:41:42;;;;;;;2.27;1.87;;;;;;;0.96;58.55;99445.47;1725474;83;21037;-68
2022/01/22 10:44:21;;;;;;;3.53;2.57;;;;;;;0.87;57.97;99451.59;1729674;82;21451;-64
2022/01/22 10:49:19;;;;;;;4.95;2.22;;;;;;;0.87;58.98;99450.78;1734345;82;21583;-64
2022/01/22 10:51:56;;;;;;;2.87;2.67;;;;;;;0.92;59.02;99454.61;1720044;82;20992;-65
2022/01/22 10:54:25;;;;;;;;;;;;;;;0.94;58.66;99455.75;1724271;82;21130;-68
2022/01/22 10:56:53;;;;;;;4.07;2.13;;;;;;;0.95;58.92;99449.05;1723195;82;20147;-66
2022/01/22 10:59:22;;;;;;;3.83;2.13;;;;;;;0.92;59.23;99455.08;1702296;84;21059;-68
2022/01/22 11:02:02;;;;;;;3.23;2.67;;;;;;;0.91;59.18;99443.77;1725627;81;21857;-68
2022/01/22 11:04:36;;;;;;;5.47;3.33;;;;;;;0.91;59.50;99450.33;1730207;82;21119;-66
2022/01/22 11:07:08;;;;;;;2.83;2.50;;;;;;;0.85;59.52;99460.56;1725174;82;21030;-66
2022/01/22 11:09:35;;;;;;;2.97;2.10;;;;;;;0.83;60.07;99466.45;1714452;82;21040;-67
2022/01/22 11:12:06;;;;;;;2.80;2.60;;;;;;;0.68;60.68;99468.27;1720829;82;20998;-66
2022/01/22 11:14:39;;;;;;;3.83;2.63;;;;;;;0.57;61.78;99462.73;1700874;82;20967;-66
2022/01/22 11:17:07;;;;;;;5.27;2.23;;;;;;;0.53;61.68;99471.05;1724759;82;21474;-66
2022/01/22 11:19:36;;;;;;;2.53;1.77;;;;;;;0.52;61.68;99475.94;1719443;82;21082;-67
2022/01/22 11:22:11;;;;;;;4.77;2.63;;;;;;;0.54;61.83;99476.12;1727770;82;20987;-68
2022/01/22 11:24:41;;;;;;;3.83;2.20;;;;;;;0.62;61.90;99482.44;1731445;82;21114;-65
2022/01/22 11:27:10;;;;;;;2.00;1.53;;;;;;;0.64;61.98;99476.09;1728078;82;21090;-65
2022/01/22 11:30:00;;;;;;;4.63;1.90;;;;;;;0.65;62.86;99474.30;1730794;82;21021;-68
2022/01/22 11:32:32;;;;;;;2.73;2.03;;;;;;;0.65;63.28;99479.53;1726549;82;21098;-68
2022/01/22 11:35:02;;;;;;;3.03;2.27;;;;;;;0.62;63.84;99482.44;1726497;82;20952;-68
2022/01/22 11:37:50;;;;;;;4.10;2.37;;;;;;;0.58;64.15;99480.59;1719090;82;21048;-67
2022/01/22 11:40:23;;;;;;;3.13;2.83;;;;;;;0.55;64.76;99480.41;1724078;82;21085;-69
2022/01/22 11:43:06;;;;;;;5.83;3.13;;;;;;;0.53;65.76;99482.35;1727448;82;21102;-65
2022/01/22 11:45:46;;;;;;;4.33;3.10;;;;;;;0.51;66.59;99489.54;1728056;82;20991;-69
2022/01/22 11:48:19;;;;;;;7.43;3.23;;;;;;;0.47;67.57;99488.18;1728989;82;21010;-64
2022/01/22 11:50:49;;;;;;;5.10;3.60;;;;;;;0.38;67.79;99486.42;1720857;82;21691;-65
2022/01/22 11:53:34;;;;;;;3.90;3.20;;;;;;;0.39;68.58;99488.88;1716710;82;21057;-67
2022/01/22 11:56:13;;;;;;;4.33;3.73;;;;;;;0.38;68.84;99493.79;1717019;82;21086;-70
2022/01/22 11:59:06;;;;;;;5.63;4.27;;;;;;;0.36;68.74;99503.59;1731633;82;21002;-65
2022/01/22 12:04:16;;;;;;;13.10;8.80;;;;;;;0.27;69.65;99522.80;1733014;82;21138;-67
2022/01/22 12:07:08;;;;;;;1.97;1.60;;;;;;;0.20;71.04;99538.74;1727410;82;21042;-66
2022/01/22 12:15:25;;;;;;;0.50;0.10;;;;;;;-0.59;74.10;99544.48;1729093;82;21510;-65
2022/01/22 12:18:03;;;;;;;0.13;0.13;;;;;;;-0.81;75.23;99556.04;1722678;82;21062;-66
2022/01/22 12:23:13;;;;;;;2.77;0.30;;;;;;;-1.05;76.02;99559.00;1727348;82;20968;-65
2022/01/22 12:25:45;;;;;;;0.25;0.23;;;;;;;-1.14;76.35;99563.71;1724505;82;20994;-64
2022/01/22 12:28:14;;;;;;;0.90;0.40;;;;;;;-1.19;76.93;99567.20;1722293;82;21006;-67
2022/01/22 12:30:45;;;;;;;1.50;0.43;;;;;;;-1.22;77.35;99570.09;1718918;82;21077;-67
2022/01/22 12:33:16;;;;;;;0.40;0.20;;;;;;;-1.26;77.44;99566.06;1718104;82;21031;-66
2022/01/22 12:35:48;;;;;;;0.50;0.40;;;;;;;-1.26;77.68;99570.83;1720747;82;21019;-67
2022/01/22 12:41:15;;;;;;;0.60;0.40;;;;;;;-1.19;77.44;99575.89;1735026;82;21567;-65
2022/01/22 12:43:39;;;;;;;1.50;1.10;;;;;;;-1.16;76.90;99575.27;1723039;82;21020;-65
2022/01/22 12:46:05;;;;;;;;;;;;;;;-1.29;76.88;99577.62;1735190;82;21085;-66
2022/01/22 12:48:35;;;;;;;1.17;0.47;;;;;;;-1.33;77.12;99585.87;1735895;82;20183;-67
2022/01/22 12:51:05;;;;;;;1.80;0.53;;;;;;;-1.37;77.35;99590.04;1735285;82;21431;-65
2022/01/22 12:53:33;;;;;;;1.10;1.00;;;;;;;-1.34;77.58;99592.05;1735286;82;21035;-66
2022/01/22 12:56:23;;;;;;;1.67;1.13;;;;;;;-1.31;77.46;99593.09;1722669;82;21082;-65
2022/01/22 12:58:39;;;;;;;1.67;1.40;;;;;;;-1.26;77.38;99596.98;1719725;82;21046;-64
2022/01/22 13:01:21;;;;;;;0.78;0.60;;;;;;;-1.21;77.34;99601.80;1721556;82;21003;-66
2022/01/22 13:03:50;;;;;;;2.47;1.60;;;;;;;-1.14;77.19;99601.63;1725109;82;21031;-67
2022/01/22 13:06:19;;;;;;;4.77;1.33;;;;;;;-1.10;77.19;99601.72;1728049;82;21041;-65
2022/01/22 13:09:05;;;;;;;2.30;1.72;;;;;;;-1.04;76.97;99606.90;1709207;82;21522;-66
2022/01/22 13:11:46;;;;;;;4.70;2.17;;;;;;;-0.98;76.70;99605.05;1731084;81;21030;-67
2022/01/22 13:14:15;;;;;;;4.60;2.40;;;;;;;-0.87;76.53;99614.61;1707488;84;21070;-66
2022/01/22 13:16:54;;;;;;;11.40;6.23;;;;;;;-0.79;76.38;99611.69;1728747;82;21098;-65
2022/01/22 13:19:22;;;;;;;10.30;6.63;;;;;;;-0.70;75.94;99616.58;1735473;82;21108;-67
2022/01/22 13:22:00;;;;;;;9.23;6.13;;;;;;;-0.65;75.58;99618.81;1735925;82;21015;-67
2022/01/22 13:24:29;;;;;;;13.40;7.43;;;;;;;-0.61;75.14;99623.63;1728846;82;21533;-65
2022/01/22 13:27:06;;;;;;;11.40;7.10;;;;;;;-0.56;74.58;99623.73;1718006;82;21105;-66
2022/01/22 13:29:35;;;;;;;12.67;8.90;;;;;;;-0.54;74.45;99633.59;1731674;82;22143;-65
2022/01/22 13:32:20;;;;;;;11.77;8.07;;;;;;;-0.51;73.61;99634.61;1730131;82;21010;-66
2022/01/22 13:40:38;;;;;;;15.83;9.48;;;;;;;-0.56;73.33;99644.19;1726815;82;20939;-68